createdAt,value
2015-03-01T00:00:10.080Z,99892
2015-03-01T00:00:28.762Z,99901
2015-03-01T00:00:47.444Z,99898
2015-03-01T00:01:06.120Z,99906
2015-03-01T00:01:24.804Z,99901
2015-03-01T00:01:43.498Z,99886
2015-03-01T00:02:02.191Z,99904
2015-03-01T00:02:20.871Z,99895
2015-03-01T00:02:39.551Z,99898
2015-03-01T00:02:58.216Z,99906
2015-03-01T00:03:16.891Z,99901
2015-03-01T00:03:35.584Z,99901
2015-03-01T00:03:54.244Z,99898
2015-03-01T00:04:12.920Z,99895
2015-03-01T00:04:31.602Z,99895
2015-03-01T00:04:50.298Z,99889
2015-03-01T00:05:08.969Z,99889
2015-03-01T00:05:27.649Z,99889
2015-03-01T00:05:46.344Z,99881
2015-03-01T00:06:05.028Z,99883
2015-03-01T00:06:23.684Z,99883
2015-03-01T00:06:42.366Z,99883
2015-03-01T00:07:01.040Z,99878
2015-03-01T00:07:19.713Z,99875
2015-03-01T00:07:38.394Z,99875
2015-03-01T00:07:57.072Z,99872
2015-03-01T00:08:15.773Z,99869
2015-03-01T00:08:34.447Z,99866
2015-03-01T00:08:53.121Z,99875
2015-03-01T00:09:11.801Z,99875
2015-03-01T00:09:30.507Z,99866
2015-03-01T00:09:49.175Z,99872
2015-03-01T00:10:07.869Z,99881
2015-03-01T00:10:26.541Z,99872
2015-03-01T00:10:45.239Z,99878
2015-03-01T00:11:03.907Z,99875
2015-03-01T00:11:22.591Z,99872
2015-03-01T00:11:41.289Z,99875
2015-03-01T00:11:59.951Z,99881
2015-03-01T00:12:18.641Z,99875
2015-03-01T00:12:37.318Z,99881
2015-03-01T00:12:56.007Z,99881
2015-03-01T00:13:14.695Z,99881
2015-03-01T00:13:33.377Z,99883
2015-03-01T00:13:52.046Z,99878
2015-03-01T00:14:10.731Z,99878
2015-03-01T00:14:29.399Z,99881
2015-03-01T00:14:48.063Z,99872
2015-03-01T00:15:06.737Z,99883
2015-03-01T00:15:25.415Z,99872
2015-03-01T00:15:44.105Z,99872
2015-03-01T00:16:02.777Z,99872
2015-03-01T00:16:21.473Z,99878
2015-03-01T00:16:40.162Z,99872
2015-03-01T00:16:58.829Z,99881
2015-03-01T00:17:17.539Z,99878
2015-03-01T00:17:36.210Z,99878
2015-03-01T00:17:54.891Z,99886
2015-03-01T00:18:13.571Z,99872
2015-03-01T00:18:32.243Z,99886
2015-03-01T00:18:50.917Z,99872
2015-03-01T00:19:09.582Z,99878
2015-03-01T00:19:28.255Z,99883
2015-03-01T00:19:46.933Z,99863
2015-03-01T00:20:05.624Z,99872
2015-03-01T00:20:24.306Z,99875
2015-03-01T00:20:42.978Z,99869
2015-03-01T00:21:01.659Z,99881
2015-03-01T00:21:20.352Z,99889
2015-03-01T00:21:39.038Z,99878
2015-03-01T00:21:57.703Z,99881
2015-03-01T00:22:16.394Z,99875
2015-03-01T00:22:35.066Z,99881
2015-03-01T00:22:53.733Z,99881
2015-03-01T00:23:12.279Z,99875
2015-03-01T00:23:30.940Z,99869
2015-03-01T00:23:49.626Z,99869
2015-03-01T00:24:08.168Z,99872
2015-03-01T00:24:26.852Z,99860
2015-03-01T00:24:45.542Z,99872
2015-03-01T00:25:04.199Z,99878
2015-03-01T00:25:22.735Z,99872
2015-03-01T00:25:41.422Z,99878
2015-03-01T00:26:00.097Z,99883
2015-03-01T00:26:18.784Z,99881
2015-03-01T00:26:37.457Z,99872
2015-03-01T00:26:56.152Z,99872
2015-03-01T00:27:14.807Z,99883
2015-03-01T00:27:33.490Z,99881
2015-03-01T00:27:52.160Z,99872
2015-03-01T00:28:10.864Z,99875
2015-03-01T00:28:29.540Z,99883
2015-03-01T00:28:48.221Z,99875
2015-03-01T00:29:06.892Z,99872
2015-03-01T00:29:25.554Z,99872
2015-03-01T00:29:44.231Z,99875
2015-03-01T00:30:02.920Z,99872
2015-03-01T00:30:21.586Z,99875
2015-03-01T00:30:40.116Z,99869
2015-03-01T00:30:58.788Z,99866
2015-03-01T00:31:17.466Z,99878
2015-03-01T00:31:36.145Z,99863
2015-03-01T00:31:54.839Z,99869
2015-03-01T00:32:13.507Z,99863
2015-03-01T00:32:32.191Z,99866
2015-03-01T00:32:50.878Z,99872
2015-03-01T00:33:09.559Z,99863
2015-03-01T00:33:28.227Z,99866
2015-03-01T00:33:46.922Z,99875
2015-03-01T00:34:05.606Z,99863
2015-03-01T00:34:24.274Z,99872
2015-03-01T00:34:42.951Z,99869
2015-03-01T00:35:01.620Z,99860
2015-03-01T00:35:20.302Z,99869
2015-03-01T00:35:38.996Z,99860
2015-03-01T00:35:57.683Z,99855
2015-03-01T00:36:16.367Z,99863
2015-03-01T00:36:35.048Z,99860
2015-03-01T00:36:53.727Z,99869
2015-03-01T00:37:12.402Z,99855
2015-03-01T00:37:31.085Z,99860
2015-03-01T00:37:49.755Z,99866
2015-03-01T00:38:08.415Z,99866
2015-03-01T00:38:27.105Z,99852
2015-03-01T00:38:45.772Z,99860
2015-03-01T00:39:04.458Z,99869
2015-03-01T00:39:23.137Z,99866
2015-03-01T00:39:41.824Z,99858
2015-03-01T00:40:00.504Z,99860
2015-03-01T00:40:19.188Z,99863
2015-03-01T00:40:37.871Z,99863
2015-03-01T00:40:56.564Z,99863
2015-03-01T00:41:15.237Z,99866
2015-03-01T00:41:33.915Z,99863
2015-03-01T00:41:52.594Z,99860
2015-03-01T00:42:11.257Z,99855
2015-03-01T00:42:29.944Z,99866
2015-03-01T00:42:48.613Z,99866
2015-03-01T00:43:07.135Z,99866
2015-03-01T00:43:25.840Z,99852
2015-03-01T00:43:44.528Z,99866
2015-03-01T00:44:03.203Z,99866
2015-03-01T00:44:21.874Z,99855
2015-03-01T00:44:40.570Z,99872
2015-03-01T00:44:59.247Z,99860
2015-03-01T00:45:17.921Z,99866
2015-03-01T00:45:36.581Z,99875
2015-03-01T00:45:55.284Z,99860
2015-03-01T00:46:13.961Z,99858
2015-03-01T00:46:32.620Z,99858
2015-03-01T00:46:51.312Z,99866
2015-03-01T00:47:09.989Z,99858
2015-03-01T00:47:28.675Z,99855
2015-03-01T00:47:47.363Z,99872
2015-03-01T00:48:06.046Z,99869
2015-03-01T00:48:24.712Z,99860
2015-03-01T00:48:43.402Z,99855
2015-03-01T00:49:02.070Z,99860
2015-03-01T00:49:20.763Z,99863
2015-03-01T00:49:39.418Z,99872
2015-03-01T00:49:58.101Z,99872
2015-03-01T00:50:16.782Z,99869
2015-03-01T00:50:35.475Z,99872
2015-03-01T00:50:54.160Z,99866
2015-03-01T00:51:12.823Z,99860
2015-03-01T00:51:31.507Z,99875
2015-03-01T00:51:50.196Z,99863
2015-03-01T00:52:08.867Z,99860
2015-03-01T00:52:27.562Z,99872
2015-03-01T00:52:46.221Z,99869
2015-03-01T00:53:04.903Z,99869
2015-03-01T00:53:23.575Z,99855
2015-03-01T00:53:42.262Z,99863
2015-03-01T00:54:00.928Z,99860
2015-03-01T00:54:19.620Z,99860
2015-03-01T00:54:38.300Z,99858
2015-03-01T00:54:56.986Z,99866
2015-03-01T00:55:15.664Z,99866
2015-03-01T00:55:34.374Z,99860
2015-03-01T00:55:53.047Z,99858
2015-03-01T00:56:11.735Z,99855
2015-03-01T00:56:30.427Z,99863
2015-03-01T00:56:49.103Z,99858
2015-03-01T00:57:07.794Z,99852
2015-03-01T00:57:26.456Z,99866
2015-03-01T00:57:45.128Z,99860
2015-03-01T00:58:03.834Z,99858
2015-03-01T00:58:22.502Z,99849
2015-03-01T00:58:41.180Z,99860
2015-03-01T00:58:59.861Z,99852
2015-03-01T00:59:18.531Z,99852
2015-03-01T00:59:37.230Z,99855
2015-03-01T00:59:55.920Z,99846
2015-03-01T01:00:14.588Z,99852
2015-03-01T01:00:33.275Z,99852
2015-03-01T01:00:51.936Z,99849
2015-03-01T01:01:10.615Z,99858
2015-03-01T01:01:29.313Z,99843
2015-03-01T01:01:47.977Z,99849
2015-03-01T01:02:06.670Z,99858
2015-03-01T01:02:25.334Z,99855
2015-03-01T01:02:44.037Z,99852
2015-03-01T01:03:02.726Z,99852
2015-03-01T01:03:21.409Z,99852
2015-03-01T01:03:40.066Z,99852
2015-03-01T01:03:58.761Z,99843
2015-03-01T01:04:17.443Z,99855
2015-03-01T01:04:36.118Z,99849
2015-03-01T01:04:54.795Z,99849
2015-03-01T01:05:13.466Z,99843
2015-03-01T01:05:32.139Z,99840
2015-03-01T01:05:50.805Z,99846
2015-03-01T01:06:09.487Z,99846
2015-03-01T01:06:28.186Z,99840
2015-03-01T01:06:46.848Z,99843
2015-03-01T01:07:05.549Z,99837
2015-03-01T01:07:24.239Z,99840
2015-03-01T01:07:42.907Z,99834
2015-03-01T01:08:01.601Z,99826
2015-03-01T01:08:20.275Z,99832
2015-03-01T01:08:38.949Z,99837
2015-03-01T01:08:57.632Z,99837
2015-03-01T01:09:16.305Z,99834
2015-03-01T01:09:34.981Z,99832
2015-03-01T01:09:53.676Z,99821
2015-03-01T01:10:12.362Z,99835
2015-03-01T01:10:31.045Z,99829
2015-03-01T01:10:49.733Z,99818
2015-03-01T01:11:08.428Z,99824
2015-03-01T01:11:27.118Z,99824
2015-03-01T01:11:45.786Z,99824
2015-03-01T01:12:04.482Z,99821
2015-03-01T01:12:23.142Z,99809
2015-03-01T01:12:41.830Z,99818
2015-03-01T01:13:00.508Z,99804
2015-03-01T01:13:19.181Z,99804
2015-03-01T01:13:37.855Z,99804
2015-03-01T01:13:56.534Z,99795
2015-03-01T01:14:15.231Z,99798
2015-03-01T01:14:33.894Z,99809
2015-03-01T01:14:52.570Z,99809
2015-03-01T01:15:11.262Z,99809
2015-03-01T01:15:29.950Z,99804
2015-03-01T01:15:48.635Z,99795
2015-03-01T01:16:07.312Z,99801
2015-03-01T01:16:25.993Z,99789
2015-03-01T01:16:44.669Z,99809
2015-03-01T01:17:03.332Z,99804
2015-03-01T01:17:22.020Z,99792
2015-03-01T01:17:40.696Z,99798
2015-03-01T01:17:59.372Z,99801
2015-03-01T01:18:18.052Z,99792
2015-03-01T01:18:36.735Z,99801
2015-03-01T01:18:55.408Z,99798
2015-03-01T01:19:14.096Z,99795
2015-03-01T01:19:32.798Z,99795
2015-03-01T01:19:51.468Z,99787
2015-03-01T01:20:10.151Z,99787
2015-03-01T01:20:28.828Z,99798
2015-03-01T01:20:47.496Z,99787
2015-03-01T01:21:06.176Z,99785
2015-03-01T01:21:24.846Z,99789
2015-03-01T01:21:43.509Z,99779
2015-03-01T01:22:02.206Z,99785
2015-03-01T01:22:20.881Z,99773
2015-03-01T01:22:39.562Z,99787
2015-03-01T01:22:58.243Z,99787
2015-03-01T01:23:16.912Z,99779
2015-03-01T01:23:35.591Z,99779
2015-03-01T01:23:54.276Z,99782
2015-03-01T01:24:12.945Z,99773
2015-03-01T01:24:31.630Z,99776
2015-03-01T01:24:50.309Z,99782
2015-03-01T01:25:08.979Z,99787
2015-03-01T01:25:27.654Z,99779
2015-03-01T01:25:46.350Z,99776
2015-03-01T01:26:05.033Z,99773
2015-03-01T01:26:23.709Z,99764
2015-03-01T01:26:42.391Z,99773
2015-03-01T01:27:01.063Z,99779
2015-03-01T01:27:19.609Z,99779
2015-03-01T01:27:38.299Z,99764
2015-03-01T01:27:56.955Z,99756
2015-03-01T01:28:15.649Z,99759
2015-03-01T01:28:34.321Z,99770
2015-03-01T01:28:53.003Z,99764
2015-03-01T01:29:11.687Z,99759
2015-03-01T01:29:30.371Z,99764
2015-03-01T01:29:49.039Z,99764
2015-03-01T01:30:07.713Z,99770
2015-03-01T01:30:26.414Z,99773
2015-03-01T01:30:45.077Z,99759
2015-03-01T01:31:03.774Z,99764
2015-03-01T01:31:22.449Z,99764
2015-03-01T01:31:41.141Z,99756
2015-03-01T01:31:59.823Z,99759
2015-03-01T01:32:18.487Z,99762
2015-03-01T01:32:37.175Z,99759
2015-03-01T01:32:55.859Z,99753
2015-03-01T01:33:14.545Z,99762
2015-03-01T01:33:33.200Z,99759
2015-03-01T01:33:51.898Z,99753
2015-03-01T01:34:10.573Z,99747
2015-03-01T01:34:29.249Z,99756
2015-03-01T01:34:47.912Z,99753
2015-03-01T01:35:06.599Z,99744
2015-03-01T01:35:25.279Z,99753
2015-03-01T01:35:43.965Z,99739
2015-03-01T01:36:02.643Z,99741
2015-03-01T01:36:21.331Z,99753
2015-03-01T01:36:39.993Z,99747
2015-03-01T01:36:58.682Z,99750
2015-03-01T01:37:17.350Z,99744
2015-03-01T01:37:36.049Z,99744
2015-03-01T01:37:54.736Z,99756
2015-03-01T01:38:13.414Z,99747
2015-03-01T01:38:32.090Z,99741
2015-03-01T01:38:50.761Z,99739
2015-03-01T01:39:09.434Z,99739
2015-03-01T01:39:28.116Z,99741
2015-03-01T01:39:46.787Z,99744
2015-03-01T01:40:05.468Z,99741
2015-03-01T01:40:24.126Z,99739
2015-03-01T01:40:42.821Z,99741
2015-03-01T01:41:01.485Z,99736
2015-03-01T01:41:20.174Z,99741
2015-03-01T01:41:38.866Z,99730
2015-03-01T01:41:57.538Z,99741
2015-03-01T01:42:16.229Z,99736
2015-03-01T01:42:34.888Z,99733
2015-03-01T01:42:53.587Z,99733
2015-03-01T01:43:12.253Z,99733
2015-03-01T01:43:30.949Z,99730
2015-03-01T01:43:49.629Z,99730
2015-03-01T01:44:08.311Z,99724
2015-03-01T01:44:26.982Z,99733
2015-03-01T01:44:45.640Z,99736
2015-03-01T01:45:04.335Z,99733
2015-03-01T01:45:23.007Z,99733
2015-03-01T01:45:41.665Z,99733
2015-03-01T01:46:00.349Z,99739
2015-03-01T01:46:19.030Z,99733
2015-03-01T01:46:37.732Z,99739
2015-03-01T01:46:56.386Z,99736
2015-03-01T01:47:15.087Z,99724
2015-03-01T01:47:33.765Z,99724
2015-03-01T01:47:52.456Z,99736
2015-03-01T01:48:11.112Z,99730
2015-03-01T01:48:29.799Z,99724
2015-03-01T01:48:48.316Z,99733
2015-03-01T01:49:06.978Z,99736
2015-03-01T01:49:25.672Z,99730
2015-03-01T01:49:44.353Z,99721
2015-03-01T01:50:03.023Z,99730
2015-03-01T01:50:21.703Z,99724
2015-03-01T01:50:40.362Z,99727
2015-03-01T01:50:59.063Z,99730
2015-03-01T01:51:17.746Z,99718
2015-03-01T01:51:36.425Z,99721
2015-03-01T01:51:55.086Z,99721
2015-03-01T01:52:13.782Z,99730
2015-03-01T01:52:32.458Z,99724
2015-03-01T01:52:51.136Z,99721
2015-03-01T01:53:09.797Z,99724
2015-03-01T01:53:28.487Z,99727
2015-03-01T01:53:47.161Z,99721
2015-03-01T01:54:05.822Z,99718
2015-03-01T01:54:24.522Z,99713
2015-03-01T01:54:43.188Z,99716
2015-03-01T01:55:01.898Z,99713
2015-03-01T01:55:20.577Z,99710
2015-03-01T01:55:39.255Z,99707
2015-03-01T01:55:57.916Z,99710
2015-03-01T01:56:16.612Z,99710
2015-03-01T01:56:35.273Z,99707
2015-03-01T01:56:53.960Z,99704
2015-03-01T01:57:12.625Z,99701
2015-03-01T01:57:31.326Z,99710
2015-03-01T01:57:49.997Z,99716
2015-03-01T01:58:08.669Z,99710
2015-03-01T01:58:27.332Z,99713
2015-03-01T01:58:46.025Z,99713
2015-03-01T01:59:04.699Z,99713
2015-03-01T01:59:23.386Z,99707
2015-03-01T01:59:42.078Z,99698
2015-03-01T02:00:00.742Z,99710
2015-03-01T02:00:19.397Z,99710
2015-03-01T02:00:38.094Z,99713
2015-03-01T02:00:56.769Z,99701
2015-03-01T02:01:15.441Z,99707
2015-03-01T02:01:34.110Z,99713
2015-03-01T02:01:52.807Z,99704
2015-03-01T02:02:11.481Z,99713
2015-03-01T02:02:30.160Z,99698
2015-03-01T02:02:48.827Z,99721
2015-03-01T02:03:07.520Z,99713
2015-03-01T02:03:26.196Z,99707
2015-03-01T02:03:44.892Z,99713
2015-03-01T02:04:03.553Z,99716
2015-03-01T02:04:22.092Z,99718
2015-03-01T02:04:40.765Z,99718
2015-03-01T02:04:59.444Z,99710
2015-03-01T02:05:18.104Z,99716
2015-03-01T02:05:36.797Z,99710
2015-03-01T02:05:55.473Z,99713
2015-03-01T02:06:14.151Z,99704
2015-03-01T02:06:32.816Z,99707
2015-03-01T02:06:51.499Z,99710
2015-03-01T02:07:10.187Z,99701
2015-03-01T02:07:28.869Z,99701
2015-03-01T02:07:47.534Z,99704
2015-03-01T02:08:06.236Z,99704
2015-03-01T02:08:24.910Z,99704
2015-03-01T02:08:43.578Z,99713
2015-03-01T02:09:02.254Z,99707
2015-03-01T02:09:20.951Z,99707
2015-03-01T02:09:39.618Z,99713
2015-03-01T02:09:58.297Z,99704
2015-03-01T02:10:16.983Z,99701
2015-03-01T02:10:35.659Z,99701
2015-03-01T02:10:54.347Z,99707
2015-03-01T02:11:13.023Z,99710
2015-03-01T02:11:31.696Z,99704
2015-03-01T02:11:50.362Z,99701
2015-03-01T02:12:09.035Z,99698
2015-03-01T02:12:27.713Z,99707
2015-03-01T02:12:46.391Z,99695
2015-03-01T02:13:05.087Z,99695
2015-03-01T02:13:23.759Z,99695
2015-03-01T02:13:42.436Z,99701
2015-03-01T02:14:01.127Z,99704
2015-03-01T02:14:19.814Z,99698
2015-03-01T02:14:38.494Z,99704
2015-03-01T02:14:57.170Z,99701
2015-03-01T02:15:15.856Z,99701
2015-03-01T02:15:34.515Z,99698
2015-03-01T02:15:53.208Z,99693
2015-03-01T02:16:11.870Z,99695
2015-03-01T02:16:30.560Z,99707
2015-03-01T02:16:49.222Z,99698
2015-03-01T02:17:07.913Z,99698
2015-03-01T02:17:26.576Z,99698
2015-03-01T02:17:45.250Z,99704
2015-03-01T02:18:03.947Z,99704
2015-03-01T02:18:22.633Z,99701
2015-03-01T02:18:41.302Z,99695
2015-03-01T02:18:59.984Z,99695
2015-03-01T02:19:18.647Z,99704
2015-03-01T02:19:37.334Z,99690
2015-03-01T02:19:55.999Z,99704
2015-03-01T02:20:14.682Z,99701
2015-03-01T02:20:33.376Z,99693
2015-03-01T02:20:52.041Z,99698
2015-03-01T02:21:10.715Z,99695
2015-03-01T02:21:29.407Z,99701
2015-03-01T02:21:48.086Z,99704
2015-03-01T02:22:06.760Z,99704
2015-03-01T02:22:25.433Z,99693
2015-03-01T02:22:44.120Z,99690
2015-03-01T02:23:02.785Z,99698
2015-03-01T02:23:21.474Z,99687
2015-03-01T02:23:40.157Z,99681
2015-03-01T02:23:58.836Z,99690
2015-03-01T02:24:17.513Z,99695
2015-03-01T02:24:36.185Z,99687
2015-03-01T02:24:54.865Z,99681
2015-03-01T02:25:13.542Z,99690
2015-03-01T02:25:32.219Z,99687
2015-03-01T02:25:50.897Z,99687
2015-03-01T02:26:09.575Z,99684
2015-03-01T02:26:28.262Z,99684
2015-03-01T02:26:46.936Z,99687
2015-03-01T02:27:05.615Z,99687
2015-03-01T02:27:24.276Z,99687
2015-03-01T02:27:42.962Z,99687
2015-03-01T02:28:01.644Z,99681
2015-03-01T02:28:20.315Z,99687
2015-03-01T02:28:38.991Z,99690
2015-03-01T02:28:57.653Z,99684
2015-03-01T02:29:16.370Z,99684
2015-03-01T02:29:35.014Z,99678
2015-03-01T02:29:53.706Z,99675
2015-03-01T02:30:12.384Z,99684
2015-03-01T02:30:30.919Z,99681
2015-03-01T02:30:49.581Z,99678
2015-03-01T02:31:08.258Z,99672
2015-03-01T02:31:26.950Z,99675
2015-03-01T02:31:45.621Z,99681
2015-03-01T02:32:04.296Z,99670
2015-03-01T02:32:22.960Z,99681
2015-03-01T02:32:41.641Z,99678
2015-03-01T02:33:00.316Z,99681
2015-03-01T02:33:19.027Z,99675
2015-03-01T02:33:37.672Z,99675
2015-03-01T02:33:56.358Z,99684
2015-03-01T02:34:15.036Z,99675
2015-03-01T02:34:33.732Z,99684
2015-03-01T02:34:52.406Z,99675
2015-03-01T02:35:11.068Z,99681
2015-03-01T02:35:29.760Z,99684
2015-03-01T02:35:48.435Z,99687
2015-03-01T02:36:07.113Z,99681
2015-03-01T02:36:25.793Z,99684
2015-03-01T02:36:44.451Z,99684
2015-03-01T02:37:03.137Z,99670
2015-03-01T02:37:21.805Z,99678
2015-03-01T02:37:40.495Z,99672
2015-03-01T02:37:59.171Z,99678
2015-03-01T02:38:17.850Z,99670
2015-03-01T02:38:36.565Z,99664
2015-03-01T02:38:55.231Z,99664
2015-03-01T02:39:13.901Z,99658
2015-03-01T02:39:32.574Z,99672
2015-03-01T02:39:51.255Z,99670
2015-03-01T02:40:09.929Z,99667
2015-03-01T02:40:28.617Z,99672
2015-03-01T02:40:47.284Z,99670
2015-03-01T02:41:05.945Z,99675
2015-03-01T02:41:24.638Z,99672
2015-03-01T02:41:43.316Z,99664
2015-03-01T02:42:02.012Z,99664
2015-03-01T02:42:20.700Z,99664
2015-03-01T02:42:39.366Z,99661
2015-03-01T02:42:58.062Z,99667
2015-03-01T02:43:16.737Z,99664
2015-03-01T02:43:35.406Z,99661
2015-03-01T02:43:54.088Z,99661
2015-03-01T02:44:12.746Z,99664
2015-03-01T02:44:31.442Z,99655
2015-03-01T02:44:50.125Z,99658
2015-03-01T02:45:08.804Z,99670
2015-03-01T02:45:27.486Z,99664
2015-03-01T02:45:46.150Z,99664
2015-03-01T02:46:04.845Z,99649
2015-03-01T02:46:23.521Z,99647
2015-03-01T02:46:42.183Z,99649
2015-03-01T02:47:00.871Z,99652
2015-03-01T02:47:19.563Z,99655
2015-03-01T02:47:38.228Z,99661
2015-03-01T02:47:56.921Z,99649
2015-03-01T02:48:15.594Z,99652
2015-03-01T02:48:34.277Z,99658
2015-03-01T02:48:52.943Z,99655
2015-03-01T02:49:11.641Z,99658
2015-03-01T02:49:30.343Z,99652
2015-03-01T02:49:49.002Z,99652
2015-03-01T02:50:07.685Z,99655
2015-03-01T02:50:26.369Z,99636
2015-03-01T02:50:45.043Z,99649
2015-03-01T02:51:03.702Z,99649
2015-03-01T02:51:22.390Z,99647
2015-03-01T02:51:41.071Z,99658
2015-03-01T02:51:59.730Z,99655
2015-03-01T02:52:18.420Z,99655
2015-03-01T02:52:37.097Z,99642
2015-03-01T02:52:55.759Z,99645
2015-03-01T02:53:14.454Z,99639
2015-03-01T02:53:33.123Z,99647
2015-03-01T02:53:51.811Z,99649
2015-03-01T02:54:10.485Z,99652
2015-03-01T02:54:29.151Z,99642
2015-03-01T02:54:47.837Z,99642
2015-03-01T02:55:06.512Z,99647
2015-03-01T02:55:25.200Z,99652
2015-03-01T02:55:43.891Z,99639
2015-03-01T02:56:02.562Z,99645
2015-03-01T02:56:21.240Z,99627
2015-03-01T02:56:39.926Z,99642
2015-03-01T02:56:58.606Z,99639
2015-03-01T02:57:17.261Z,99639
2015-03-01T02:57:35.947Z,99647
2015-03-01T02:57:54.626Z,99639
2015-03-01T02:58:13.287Z,99642
2015-03-01T02:58:31.974Z,99642
2015-03-01T02:58:50.647Z,99639
2015-03-01T02:59:09.339Z,99622
2015-03-01T02:59:28.009Z,99616
2015-03-01T02:59:46.693Z,99622
2015-03-01T03:00:05.356Z,99625
2015-03-01T03:00:24.063Z,99625
2015-03-01T03:00:42.723Z,99613
2015-03-01T03:01:01.433Z,99610
2015-03-01T03:01:20.106Z,99622
2015-03-01T03:01:38.785Z,99602
2015-03-01T03:01:57.466Z,99610
2015-03-01T03:02:16.128Z,99602
2015-03-01T03:02:34.805Z,99599
2015-03-01T03:02:53.491Z,99613
2015-03-01T03:03:12.155Z,99593
2015-03-01T03:03:30.838Z,99599
2015-03-01T03:03:49.522Z,99599
2015-03-01T03:04:08.209Z,99593
2015-03-01T03:04:26.891Z,99593
2015-03-01T03:04:45.572Z,99596
2015-03-01T03:05:04.252Z,99590
2015-03-01T03:05:22.911Z,99573
2015-03-01T03:05:41.600Z,99579
2015-03-01T03:06:00.267Z,99573
2015-03-01T03:06:18.956Z,99576
2015-03-01T03:06:37.642Z,99573
2015-03-01T03:06:56.301Z,99561
2015-03-01T03:07:14.986Z,99570
2015-03-01T03:07:33.656Z,99570
2015-03-01T03:07:52.354Z,99556
2015-03-01T03:08:11.016Z,99556
2015-03-01T03:08:29.697Z,99556
2015-03-01T03:08:48.396Z,99567
2015-03-01T03:09:07.079Z,99567
2015-03-01T03:09:25.762Z,99556
2015-03-01T03:09:44.439Z,99561
2015-03-01T03:10:03.106Z,99556
2015-03-01T03:10:21.797Z,99564
2015-03-01T03:10:40.472Z,99561
2015-03-01T03:10:59.137Z,99548
2015-03-01T03:11:17.838Z,99545
2015-03-01T03:11:36.506Z,99539
2015-03-01T03:11:55.196Z,99561
2015-03-01T03:12:13.883Z,99548
2015-03-01T03:12:32.563Z,99530
2015-03-01T03:12:51.268Z,99548
2015-03-01T03:13:09.942Z,99542
2015-03-01T03:13:28.626Z,99545
2015-03-01T03:13:47.304Z,99545
2015-03-01T03:14:05.975Z,99556
2015-03-01T03:14:24.649Z,99551
2015-03-01T03:14:43.327Z,99576
2015-03-01T03:15:01.985Z,99573
2015-03-01T03:15:20.669Z,99573
2015-03-01T03:15:39.354Z,99578
2015-03-01T03:15:58.032Z,99570
2015-03-01T03:16:16.718Z,99579
2015-03-01T03:16:35.391Z,99564
2015-03-01T03:16:54.073Z,99570
2015-03-01T03:17:12.768Z,99587
2015-03-01T03:17:31.430Z,99584
2015-03-01T03:17:50.127Z,99581
2015-03-01T03:18:08.800Z,99570
2015-03-01T03:18:27.475Z,99584
2015-03-01T03:18:46.141Z,99584
2015-03-01T03:19:04.835Z,99581
2015-03-01T03:19:23.506Z,99587
2015-03-01T03:19:42.189Z,99587
2015-03-01T03:20:00.713Z,99587
2015-03-01T03:20:19.393Z,99579
2015-03-01T03:20:38.074Z,99576
2015-03-01T03:20:56.756Z,99576
2015-03-01T03:21:15.440Z,99581
2015-03-01T03:21:34.106Z,99581
2015-03-01T03:21:52.784Z,99593
2015-03-01T03:22:11.464Z,99581
2015-03-01T03:22:30.151Z,99581
2015-03-01T03:22:48.828Z,99587
2015-03-01T03:23:07.488Z,99584
2015-03-01T03:23:26.191Z,99579
2015-03-01T03:23:44.864Z,99581
2015-03-01T03:24:03.539Z,99596
2015-03-01T03:24:22.204Z,99570
2015-03-01T03:24:40.913Z,99581
2015-03-01T03:24:59.581Z,99579
2015-03-01T03:25:18.262Z,99581
2015-03-01T03:25:36.957Z,99581
2015-03-01T03:25:55.615Z,99570
2015-03-01T03:26:14.309Z,99587
2015-03-01T03:26:32.993Z,99573
2015-03-01T03:26:51.654Z,99579
2015-03-01T03:27:10.328Z,99573
2015-03-01T03:27:29.020Z,99573
2015-03-01T03:27:47.697Z,99576
2015-03-01T03:28:06.370Z,99570
2015-03-01T03:28:25.053Z,99573
2015-03-01T03:28:43.714Z,99564
2015-03-01T03:29:02.412Z,99570
2015-03-01T03:29:21.094Z,99584
2015-03-01T03:29:39.765Z,99564
2015-03-01T03:29:58.446Z,99567
2015-03-01T03:30:17.127Z,99567
2015-03-01T03:30:35.793Z,99567
2015-03-01T03:30:54.470Z,99567
2015-03-01T03:31:13.163Z,99567
2015-03-01T03:31:31.842Z,99570
2015-03-01T03:31:50.506Z,99556
2015-03-01T03:32:09.187Z,99570
2015-03-01T03:32:27.888Z,99561
2015-03-01T03:32:46.582Z,99573
2015-03-01T03:33:05.244Z,99561
2015-03-01T03:33:23.930Z,99556
2015-03-01T03:33:42.614Z,99551
2015-03-01T03:34:01.275Z,99554
2015-03-01T03:34:19.963Z,99542
2015-03-01T03:34:38.637Z,99556
2015-03-01T03:34:57.315Z,99551
2015-03-01T03:35:15.983Z,99554
2015-03-01T03:35:34.673Z,99551
2015-03-01T03:35:53.347Z,99539
2015-03-01T03:36:12.024Z,99545
2015-03-01T03:36:30.697Z,99542
2015-03-01T03:36:49.392Z,99539
2015-03-01T03:37:08.078Z,99539
2015-03-01T03:37:26.754Z,99551
2015-03-01T03:37:45.446Z,99556
2015-03-01T03:38:04.102Z,99536
2015-03-01T03:38:22.779Z,99539
2015-03-01T03:38:41.475Z,99539
2015-03-01T03:39:00.157Z,99536
2015-03-01T03:39:18.831Z,99539
2015-03-01T03:39:37.508Z,99542
2015-03-01T03:39:56.170Z,99548
2015-03-01T03:40:14.861Z,99542
2015-03-01T03:40:33.554Z,99545
2015-03-01T03:40:52.234Z,99536
2015-03-01T03:41:10.911Z,99548
2015-03-01T03:41:29.598Z,99545
2015-03-01T03:41:48.266Z,99530
2015-03-01T03:42:06.956Z,99545
2015-03-01T03:42:25.605Z,99533
2015-03-01T03:42:44.322Z,99533
2015-03-01T03:43:02.982Z,99536
2015-03-01T03:43:21.650Z,99539
2015-03-01T03:43:40.324Z,99542
2015-03-01T03:43:59.016Z,99527
2015-03-01T03:44:17.689Z,99539
2015-03-01T03:44:36.388Z,99550
2015-03-01T03:44:55.071Z,99545
2015-03-01T03:45:13.759Z,99553
2015-03-01T03:45:32.438Z,99542
2015-03-01T03:45:51.104Z,99556
2015-03-01T03:46:09.762Z,99542
2015-03-01T03:46:28.457Z,99545
2015-03-01T03:46:47.136Z,99545
2015-03-01T03:47:05.810Z,99542
2015-03-01T03:47:24.479Z,99550
2015-03-01T03:47:43.165Z,99542
2015-03-01T03:48:01.842Z,99545
2015-03-01T03:48:20.532Z,99561
2015-03-01T03:48:39.215Z,99553
2015-03-01T03:48:57.873Z,99547
2015-03-01T03:49:16.570Z,99547
2015-03-01T03:49:35.244Z,99547
2015-03-01T03:49:53.931Z,99550
2015-03-01T03:50:12.615Z,99550
2015-03-01T03:50:31.292Z,99550
2015-03-01T03:50:49.976Z,99556
2015-03-01T03:51:08.670Z,99545
2015-03-01T03:51:27.353Z,99547
2015-03-01T03:51:46.046Z,99561
2015-03-01T03:52:04.730Z,99556
2015-03-01T03:52:23.411Z,99556
2015-03-01T03:52:42.092Z,99561
2015-03-01T03:53:00.778Z,99567
2015-03-01T03:53:19.456Z,99553
2015-03-01T03:53:38.129Z,99561
2015-03-01T03:53:56.813Z,99564
2015-03-01T03:54:15.497Z,99572
2015-03-01T03:54:34.162Z,99561
2015-03-01T03:54:52.851Z,99575
2015-03-01T03:55:11.537Z,99556
2015-03-01T03:55:30.209Z,99567
2015-03-01T03:55:48.897Z,99572
2015-03-01T03:56:07.582Z,99567
2015-03-01T03:56:26.271Z,99570
2015-03-01T03:56:44.951Z,99567
2015-03-01T03:57:03.629Z,99570
2015-03-01T03:57:22.300Z,99561
2015-03-01T03:57:40.978Z,99578
2015-03-01T03:57:59.639Z,99561
2015-03-01T03:58:18.329Z,99570
2015-03-01T03:58:37.012Z,99561
2015-03-01T03:58:55.683Z,99567
2015-03-01T03:59:14.359Z,99570
2015-03-01T03:59:33.046Z,99567
2015-03-01T03:59:51.708Z,99553
2015-03-01T04:00:10.389Z,99556
2015-03-01T04:00:29.090Z,99572